Time;durP1;ratioP1;P1;durP2;ratioP2;P2;SDS_P1;SDS_P2;PMS_P1;PMS_P2;Temp;Humidity;BMP_temperature;BMP_pressure;BME280_temperature;BME280_humidity;BME280_pressure;Samples;Min_cycle;Max_cycle;Signal;HPM_P1;HPM_P2
2023/03/21 00:00:44;;;;;;;7.25;3.28;;;8.50;93.30;;;;;;5055780;28;20213;-88
2023/03/21 00:03:11;;;;;;;3.85;3.25;;;8.50;93.70;;;;;;5052917;28;20251;-89
2023/03/21 00:05:40;;;;;;;3.83;3.10;;;8.50;93.70;;;;;;5041138;28;20197;-88
2023/03/21 00:08:07;;;;;;;4.85;2.92;;;8.60;93.60;;;;;;5052506;28;20222;-88
2023/03/21 00:10:34;;;;;;;3.47;3.08;;;8.50;93.60;;;;;;5053380;28;20198;-88
2023/03/21 00:13:02;;;;;;;4.25;2.95;;;8.50;93.60;;;;;;5054612;28;20216;-88
2023/03/21 00:15:29;;;;;;;3.47;3.05;;;8.60;93.60;;;;;;5060665;28;20560;-89
2023/03/21 00:20:38;;;;;;;4.10;3.05;;;8.50;93.70;;;;;;5047119;28;20219;-88
2023/03/21 00:23:05;;;;;;;2.83;2.63;;;8.50;93.70;;;;;;5024915;28;20273;-89
2023/03/21 00:25:32;;;;;;;3.28;2.92;;;8.50;93.70;;;;;;5052736;28;20198;-88
2023/03/21 00:27:59;;;;;;;3.17;2.88;;;8.40;93.90;;;;;;5055142;28;20198;-88
2023/03/21 00:30:26;;;;;;;3.63;3.05;;;8.40;94.00;;;;;;5024509;28;20198;-88
2023/03/21 00:32:53;;;;;;;5.70;3.20;;;8.50;93.90;;;;;;5041572;28;20201;-88
2023/03/21 00:35:21;;;;;;;2.90;2.50;;;8.50;93.90;;;;;;5036196;28;20541;-89
2023/03/21 00:37:48;;;;;;;3.60;2.88;;;8.50;93.90;;;;;;5055778;28;20197;-88
2023/03/21 00:40:15;;;;;;;3.30;2.92;;;8.60;93.70;;;;;;5050991;28;20202;-88
2023/03/21 00:42:41;;;;;;;3.42;3.13;;;8.60;93.50;;;;;;5046382;28;20206;-89
2023/03/21 00:45:09;;;;;;;3.03;2.72;;;8.70;93.20;;;;;;5054848;28;20213;-88
2023/03/21 00:47:36;;;;;;;3.30;3.00;;;8.70;93.30;;;;;;5032285;28;20864;-88
2023/03/21 00:50:04;;;;;;;8.68;2.70;;;8.70;93.60;;;;;;5048593;28;20250;-87
2023/03/21 00:52:32;;;;;;;3.47;2.38;;;8.60;93.60;;;;;;5031606;28;20234;-89
2023/03/21 00:55:00;;;;;;;4.78;2.67;;;8.60;93.70;;;;;;5054927;28;20204;-88
2023/03/21 00:57:27;;;;;;;2.78;2.50;;;8.60;93.60;;;;;;5036680;28;20252;-88
2023/03/21 00:59:54;;;;;;;3.30;2.80;;;8.70;93.70;;;;;;5034271;28;20214;-88
2023/03/21 01:02:25;;;;;;;3.72;2.97;;;8.70;93.70;;;;;;5037969;28;20669;-88
2023/03/21 01:04:52;;;;;;;5.63;2.90;;;8.70;93.30;;;;;;5055247;28;20201;-88
2023/03/21 01:07:19;;;;;;;4.47;3.30;;;8.70;93.50;;;;;;5058505;28;20657;-87
2023/03/21 01:09:48;;;;;;;3.45;3.15;;;8.60;93.70;;;;;;5033504;28;20238;-88
2023/03/21 01:12:16;;;;;;;4.32;3.05;;;8.50;93.80;;;;;;5053826;28;20202;-88
2023/03/21 01:14:43;;;;;;;4.28;2.90;;;8.50;94.00;;;;;;5037105;28;20198;-88
2023/03/21 01:17:10;;;;;;;5.05;3.30;;;8.40;94.10;;;;;;5052125;28;20324;-88
2023/03/21 01:19:37;;;;;;;3.35;2.83;;;8.40;94.20;;;;;;5037930;28;20217;-89
2023/03/21 01:22:04;;;;;;;5.72;3.15;;;8.40;94.30;;;;;;5037452;28;20235;-88
2023/03/21 01:24:31;;;;;;;3.47;2.80;;;8.50;94.20;;;;;;5051569;28;20210;-89
2023/03/21 01:26:59;;;;;;;5.82;3.13;;;8.70;93.80;;;;;;5055191;28;20566;-88
2023/03/21 01:29:26;;;;;;;3.88;3.05;;;8.70;93.60;;;;;;5029668;28;20221;-88
2023/03/21 01:31:54;;;;;;;2.95;2.72;;;8.80;93.60;;;;;;5035527;28;20206;-88
2023/03/21 01:34:21;;;;;;;6.97;2.88;;;8.70;93.90;;;;;;5035345;28;20745;-87
2023/03/21 01:36:48;;;;;;;3.17;2.60;;;8.70;94.00;;;;;;5055153;28;20296;-88
2023/03/21 01:39:15;;;;;;;5.65;3.13;;;8.70;94.00;;;;;;5024405;28;20240;-89
2023/03/21 01:41:43;;;;;;;3.85;2.90;;;8.70;93.80;;;;;;5050781;28;20206;-88
2023/03/21 01:44:18;;;;;;;2.80;2.53;;;8.70;93.70;;;;;;5012996;28;20225;-88
2023/03/21 01:46:48;;;;;;;3.38;2.95;;;8.70;93.90;;;;;;5048781;28;20617;-88
2023/03/21 01:49:19;;;;;;;2.80;2.55;;;8.70;93.90;;;;;;5027288;28;20332;-90
2023/03/21 01:51:49;;;;;;;3.70;2.90;;;8.80;93.50;;;;;;5030502;28;20202;-87
2023/03/21 01:54:23;;;;;;;2.80;2.60;;;8.80;93.50;;;;;;5053531;28;20252;-88
2023/03/21 01:56:51;;;;;;;3.92;2.53;;;8.80;93.60;;;;;;5054074;28;20343;-91
2023/03/21 01:59:25;;;;;;;4.38;3.05;;;8.80;93.70;;;;;;5051450;28;20217;-88
2023/03/21 02:01:52;;;;;;;3.55;2.70;;;8.70;93.80;;;;;;5057244;28;20213;-88
2023/03/21 02:04:26;;;;;;;3.25;2.95;;;8.70;93.80;;;;;;5045511;28;20204;-88
2023/03/21 02:06:58;;;;;;;3.92;3.20;;;8.70;93.80;;;;;;5031157;28;20254;-88
2023/03/21 02:09:30;;;;;;;3.08;2.78;;;8.70;93.90;;;;;;5049726;28;20797;-87
2023/03/21 02:11:58;;;;;;;4.22;2.88;;;8.60;94.00;;;;;;5048102;28;20646;-87
2023/03/21 02:14:27;;;;;;;3.10;2.78;;;8.60;94.30;;;;;;5035961;28;20202;-88
2023/03/21 02:17:01;;;;;;;3.50;3.17;;;8.70;94.40;;;;;;5056692;28;20945;-88
2023/03/21 02:19:57;;;;;;;3.08;2.78;;;8.70;94.30;;;;;;5043661;28;20194;-88
2023/03/21 02:22:43;;;;;;;3.63;3.00;;;8.70;94.20;;;;;;5035416;28;20287;-88
2023/03/21 02:25:49;;;;;;;5.07;3.00;;;8.80;94.10;;;;;;5053236;28;20205;-88
2023/03/21 02:28:21;;;;;;;7.05;3.25;;;8.80;94.20;;;;;;5047114;28;20281;-88
2023/03/21 02:31:15;;;;;;;3.88;2.90;;;8.80;94.60;;;;;;5031142;28;20227;-87
2023/03/21 02:34:22;;;;;;;3.30;2.92;;;8.80;94.40;;;;;;5050680;28;20210;-88
2023/03/21 02:36:58;;;;;;;5.70;3.20;;;8.80;94.00;;;;;;5019518;28;20209;-88
2023/03/21 02:39:29;;;;;;;3.40;3.10;;;8.80;94.00;;;;;;5034012;28;20221;-88
2023/03/21 02:42:05;;;;;;;5.22;3.45;;;8.70;94.00;;;;;;5051975;28;20213;-89
2023/03/21 02:47:24;;;;;;;4.55;3.25;;;8.70;94.10;;;;;;5051133;28;20206;-89
2023/03/21 02:49:55;;;;;;;3.40;3.10;;;8.70;94.00;;;;;;5045234;28;20558;-88
2023/03/21 02:55:34;;;;;;;3.88;2.90;;;8.80;94.30;;;;;;5149540;27;20552;-88
2023/03/21 02:58:02;;;;;;;4.20;3.40;;;8.80;94.10;;;;;;5130098;27;20651;-89
2023/03/21 03:00:33;;;;;;;3.40;3.08;;;8.80;94.10;;;;;;5128126;27;20202;-88
2023/03/21 03:03:00;;;;;;;3.63;3.30;;;8.70;94.30;;;;;;5127144;27;20666;-88
2023/03/21 03:05:30;;;;;;;3.20;2.90;;;8.70;94.50;;;;;;5124811;27;20219;-88
2023/03/21 03:08:09;;;;;;;4.75;3.20;;;8.60;94.70;;;;;;5122610;27;20216;-88
2023/03/21 03:10:57;;;;;;;4.07;3.08;;;8.70;94.90;;;;;;5128351;27;20277;-88
2023/03/21 03:13:37;;;;;;;3.75;3.10;;;8.70;94.90;;;;;;5129318;27;20254;-88
2023/03/21 03:16:15;;;;;;;4.18;3.63;;;8.80;94.80;;;;;;5124965;28;20247;-87
2023/03/21 03:18:49;;;;;;;3.33;3.03;;;8.70;95.00;;;;;;5124125;27;20202;-91
2023/03/21 03:21:24;;;;;;;3.72;3.30;;;8.60;95.10;;;;;;5127923;27;20199;-88
2023/03/21 03:23:55;;;;;;;4.25;3.30;;;8.60;95.30;;;;;;5109798;27;20543;-89
2023/03/21 03:26:28;;;;;;;3.65;3.15;;;8.60;95.30;;;;;;5105761;28;20564;-87
2023/03/21 03:28:59;;;;;;;3.85;3.20;;;8.60;95.30;;;;;;5106940;28;20809;-87
2023/03/21 03:31:29;;;;;;;3.50;3.17;;;8.60;95.10;;;;;;5108496;28;20219;-87
2023/03/21 03:34:01;;;;;;;3.42;3.13;;;8.60;94.90;;;;;;5114840;27;20863;-88
2023/03/21 03:36:34;;;;;;;4.22;3.28;;;8.70;94.70;;;;;;5104552;28;20203;-87
2023/03/21 03:39:04;;;;;;;4.38;3.17;;;8.70;94.70;;;;;;5104349;28;20192;-87
2023/03/21 03:41:45;;;;;;;4.25;3.22;;;8.70;94.70;;;;;;5106146;28;20224;-87
2023/03/21 03:44:13;;;;;;;3.40;3.10;;;8.70;94.90;;;;;;5110122;27;20235;-91
2023/03/21 03:46:45;;;;;;;5.53;2.90;;;8.70;94.60;;;;;;5103110;28;20285;-88
2023/03/21 03:49:16;;;;;;;3.75;3.03;;;8.70;94.50;;;;;;5104622;28;20203;-88
2023/03/21 03:51:50;;;;;;;4.05;3.00;;;8.70;94.50;;;;;;5103864;28;20196;-87
2023/03/21 03:54:22;;;;;;;3.40;3.10;;;8.70;94.70;;;;;;5082053;28;20226;-88
2023/03/21 03:56:51;;;;;;;3.72;3.33;;;8.70;94.50;;;;;;5088843;28;20236;-88
2023/03/21 03:59:20;;;;;;;3.67;3.20;;;8.70;94.50;;;;;;5105078;28;20203;-87
2023/03/21 04:01:47;;;;;;;3.30;3.00;;;8.70;94.50;;;;;;5097147;27;20300;-88
2023/03/21 04:04:15;;;;;;;3.28;2.97;;;8.80;94.20;;;;;;5106856;28;20216;-88
2023/03/21 04:06:44;;;;;;;4.55;3.30;;;8.80;94.10;;;;;;5095198;28;20201;-88
2023/03/21 04:09:11;;;;;;;3.42;3.08;;;8.80;94.10;;;;;;5092631;28;20301;-87
2023/03/21 04:11:38;;;;;;;3.50;3.13;;;8.80;94.10;;;;;;5088630;28;20204;-87
2023/03/21 04:14:06;;;;;;;3.47;2.85;;;8.80;94.10;;;;;;5093921;28;20232;-88
2023/03/21 04:16:33;;;;;;;5.40;2.85;;;8.80;94.20;;;;;;5084704;28;20197;-87
2023/03/21 04:19:00;;;;;;;4.05;3.63;;;8.80;94.30;;;;;;5087561;28;20208;-87
2023/03/21 04:21:28;;;;;;;3.83;2.83;;;8.90;94.30;;;;;;5093562;28;20220;-87
2023/03/21 04:23:56;;;;;;;3.78;2.92;;;8.90;94.20;;;;;;5082206;28;20675;-87
2023/03/21 04:26:23;;;;;;;3.30;3.00;;;8.90;94.20;;;;;;5097950;28;20306;-87
2023/03/21 04:28:51;;;;;;;3.28;2.97;;;8.90;94.20;;;;;;5092885;28;20223;-87
2023/03/21 04:31:20;;;;;;;3.20;2.90;;;8.90;94.00;;;;;;5087238;28;20209;-87
2023/03/21 04:33:46;;;;;;;5.28;3.13;;;8.80;93.90;;;;;;5091301;28;20251;-87
2023/03/21 04:36:25;;;;;;;3.15;2.85;;;8.80;94.00;;;;;;5091807;28;20204;-87
2023/03/21 04:38:52;;;;;;;4.18;3.15;;;8.80;94.20;;;;;;5092020;28;20223;-88
2023/03/21 04:41:19;;;;;;;4.10;3.00;;;8.80;94.50;;;;;;5098228;28;20564;-88
2023/03/21 04:43:47;;;;;;;3.65;3.20;;;8.70;94.50;;;;;;5087218;28;20192;-88
2023/03/21 04:46:14;;;;;;;3.28;2.97;;;8.80;94.50;;;;;;5098008;28;20201;-87
2023/03/21 04:48:42;;;;;;;3.40;3.10;;;8.70;94.40;;;;;;5091924;28;20329;-88
2023/03/21 04:51:09;;;;;;;3.72;3.20;;;8.70;94.60;;;;;;5094694;28;20200;-88
2023/03/21 04:53:37;;;;;;;4.03;3.22;;;8.70;94.50;;;;;;5098612;28;20216;-87
2023/03/21 04:56:04;;;;;;;5.07;3.25;;;8.70;94.40;;;;;;5090933;28;20185;-87
2023/03/21 04:58:31;;;;;;;7.60;3.53;;;8.80;94.20;;;;;;5081903;28;20272;-87
2023/03/21 05:00:58;;;;;;;4.68;3.45;;;8.80;94.10;;;;;;5093820;28;20561;-87
2023/03/21 05:03:27;;;;;;;3.05;2.80;;;8.70;94.20;;;;;;5095110;28;20580;-87
2023/03/21 05:05:56;;;;;;;4.35;3.35;;;8.70;94.60;;;;;;5088721;28;20211;-92
2023/03/21 05:08:23;;;;;;;5.05;3.35;;;8.70;94.90;;;;;;5097985;28;20232;-88
2023/03/21 05:10:50;;;;;;;3.17;2.85;;;8.70;94.80;;;;;;5093935;28;20649;-89
2023/03/21 05:13:16;;;;;;;4.07;3.53;;;8.60;94.80;;;;;;5092852;28;20204;-87
2023/03/21 05:15:43;;;;;;;4.65;3.40;;;8.60;94.80;;;;;;5089359;28;20305;-89
2023/03/21 05:18:11;;;;;;;3.50;3.20;;;8.60;95.00;;;;;;5092911;28;20208;-87
2023/03/21 05:20:41;;;;;;;3.83;3.45;;;8.60;94.70;;;;;;5095034;28;20261;-87
2023/03/21 05:23:17;;;;;;;3.95;3.40;;;8.60;94.60;;;;;;5091523;28;20216;-87
2023/03/21 05:25:44;;;;;;;4.38;3.10;;;8.60;94.70;;;;;;5084643;28;20198;-87
2023/03/21 05:28:11;;;;;;;3.97;3.58;;;8.60;94.70;;;;;;5091687;28;20227;-88
2023/03/21 05:30:38;;;;;;;4.63;3.63;;;8.70;94.70;;;;;;5089173;28;20196;-87
2023/03/21 05:33:05;;;;;;;4.57;3.28;;;8.80;94.80;;;;;;5091688;28;20189;-88
2023/03/21 05:35:32;;;;;;;4.57;3.25;;;8.80;94.50;;;;;;5095436;28;20209;-91
2023/03/21 05:37:59;;;;;;;3.50;3.20;;;8.70;94.40;;;;;;5088174;28;20556;-89
2023/03/21 05:40:30;;;;;;;5.35;3.42;;;8.70;94.80;;;;;;5087885;28;20208;-87
2023/03/21 05:42:57;;;;;;;7.50;3.70;;;8.80;94.80;;;;;;5090283;28;20200;-87
2023/03/21 05:45:24;;;;;;;4.38;3.17;;;8.80;94.90;;;;;;5090164;28;20223;-88
2023/03/21 05:47:51;;;;;;;4.43;3.58;;;8.70;94.90;;;;;;5078405;28;20245;-87
2023/03/21 05:50:18;;;;;;;3.72;3.40;;;8.80;94.90;;;;;;5091788;28;20196;-88
2023/03/21 05:52:45;;;;;;;4.80;3.70;;;8.80;94.70;;;;;;5089541;28;20560;-89
2023/03/21 05:55:12;;;;;;;5.95;3.55;;;8.80;94.50;;;;;;5091346;28;20220;-88
2023/03/21 06:00:22;;;;;;;7.18;3.83;;;8.90;94.50;;;;;;5090124;28;20232;-89
2023/03/21 06:02:49;;;;;;;4.63;3.47;;;8.90;94.20;;;;;;5085014;28;20211;-89
2023/03/21 06:05:16;;;;;;;4.35;3.53;;;9.00;94.20;;;;;;5089351;28;20211;-89
2023/03/21 06:07:43;;;;;;;4.40;3.45;;;9.00;94.40;;;;;;5086644;28;20196;-88
2023/03/21 06:10:11;;;;;;;5.32;3.55;;;9.00;94.50;;;;;;5088834;28;20189;-88
2023/03/21 06:12:38;;;;;;;8.93;3.53;;;9.10;94.40;;;;;;5091391;28;20200;-90
2023/03/21 06:17:48;;;;;;;7.68;3.65;;;9.20;94.20;;;;;;5089732;28;20228;-89
2023/03/21 06:20:15;;;;;;;5.72;3.67;;;9.20;93.60;;;;;;5093018;28;20201;-88
2023/03/21 06:22:42;;;;;;;4.68;3.70;;;9.20;93.30;;;;;;5089354;28;20574;-88
2023/03/21 06:25:10;;;;;;;4.25;3.85;;;9.30;93.10;;;;;;5098609;28;20200;-88
2023/03/21 06:27:37;;;;;;;4.38;3.60;;;9.30;92.70;;;;;;5102184;28;20236;-88
2023/03/21 06:32:54;;;;;;;8.05;3.58;;;9.50;92.40;;;;;;5086178;28;20196;-87
2023/03/21 06:35:43;;;;;;;4.30;3.55;;;9.70;92.60;;;;;;5080883;28;20228;-88
2023/03/21 06:52:05;;;;;;;6.88;3.42;;;9.90;90.40;;;;;;5084405;28;20229;-88
2023/03/21 06:54:33;;;;;;;5.07;3.60;;;10.00;89.10;;;;;;5091108;28;20220;-88
2023/03/21 06:57:01;;;;;;;4.20;3.40;;;10.10;86.10;;;;;;5090526;28;20206;-88
2023/03/21 06:59:27;;;;;;;4.70;3.80;;;10.20;84.10;;;;;;5090856;28;20197;-87
2023/03/21 07:10:07;;;;;;;9.80;3.80;;;10.40;84.40;;;;;;5091505;28;20211;-91
2023/03/21 07:12:52;;;;;;;6.40;4.32;;;10.40;83.10;;;;;;5087497;28;20270;-88
2023/03/21 07:15:21;;;;;;;5.10;4.40;;;10.40;81.50;;;;;;5090077;28;20566;-89
2023/03/21 07:17:49;;;;;;;4.85;3.90;;;10.40;81.80;;;;;;5084522;28;20197;-86
2023/03/21 07:20:17;;;;;;;4.43;3.72;;;10.40;83.60;;;;;;5091841;28;20652;-87
2023/03/21 07:22:44;;;;;;;5.35;4.22;;;10.50;80.20;;;;;;5089030;28;20219;-87
2023/03/21 07:25:12;;;;;;;6.70;4.30;;;10.70;77.90;;;;;;5086700;28;20205;-89
2023/03/21 07:27:39;;;;;;;5.35;4.00;;;10.70;77.80;;;;;;5095188;28;20203;-87
2023/03/21 07:30:08;;;;;;;7.75;4.50;;;10.60;77.70;;;;;;5102483;28;20208;-88
2023/03/21 07:32:39;;;;;;;9.98;4.15;;;10.70;78.10;;;;;;5090068;28;20201;-89
2023/03/21 07:37:53;;;;;;;5.55;4.20;;;10.90;77.50;;;;;;5098931;28;20590;-90
2023/03/21 07:40:21;;;;;;;5.28;4.10;;;10.90;76.00;;;;;;5095633;28;20203;-89
2023/03/21 07:42:50;;;;;;;5.32;4.18;;;11.10;74.00;;;;;;5094249;28;20242;-90
2023/03/21 07:45:20;;;;;;;7.63;4.25;;;11.10;71.00;;;;;;5092635;28;20684;-87
2023/03/21 07:47:48;;;;;;;5.13;4.60;;;11.00;74.10;;;;;;5096181;28;20204;-87
2023/03/21 07:50:17;;;;;;;7.00;4.40;;;11.00;76.80;;;;;;5096554;28;20195;-87
2023/03/21 07:52:44;;;;;;;5.10;4.47;;;11.20;74.40;;;;;;5090118;28;20684;-88
2023/03/21 07:55:11;;;;;;;5.28;4.22;;;11.30;72.60;;;;;;5096199;28;20224;-87
2023/03/21 07:57:38;;;;;;;6.85;4.15;;;11.50;69.60;;;;;;5093909;28;20188;-87
2023/03/21 08:00:07;;;;;;;7.90;4.55;;;11.60;67.80;;;;;;5089654;28;20197;-87
2023/03/21 08:02:34;;;;;;;7.25;4.82;;;11.50;70.40;;;;;;5088357;28;20208;-89
2023/03/21 08:05:02;;;;;;;5.85;4.40;;;11.70;66.40;;;;;;5097229;28;20204;-86
2023/03/21 08:10:32;;;;;;;8.45;4.65;;;11.50;73.30;;;;;;5093254;28;20292;-86
2023/03/21 08:13:03;;;;;;;7.95;4.40;;;11.50;66.70;;;;;;5092988;28;20668;-87
2023/03/21 08:15:30;;;;;;;6.57;4.68;;;11.60;67.10;;;;;;5096435;28;20205;-86
2023/03/21 08:17:59;;;;;;;7.68;4.45;;;11.70;63.60;;;;;;5088872;28;20201;-86
2023/03/21 08:20:27;;;;;;;5.60;4.70;;;12.00;59.40;;;;;;5092589;28;20200;-88
2023/03/21 08:26:28;;;;;;;8.90;4.85;;;12.10;57.90;;;;;;5021845;28;20304;-88
2023/03/21 08:28:55;;;;;;;7.10;4.47;;;11.90;56.40;;;;;;5032984;28;20237;-86
2023/03/21 08:31:28;;;;;;;6.68;4.72;;;11.80;59.20;;;;;;5034569;28;20210;-88
2023/03/21 08:33:55;;;;;;;9.45;4.97;;;11.80;65.20;;;;;;5033840;28;20675;-86
2023/03/21 08:36:22;;;;;;;10.82;4.75;;;12.10;60.40;;;;;;5027123;28;20837;-88
2023/03/21 08:38:55;;;;;;;6.82;4.35;;;12.20;61.50;;;;;;5030507;28;20209;-87
2023/03/21 08:41:24;;;;;;;6.93;4.30;;;12.40;56.60;;;;;;5009714;28;20262;-89
2023/03/21 08:43:51;;;;;;;7.15;4.97;;;12.40;53.10;;;;;;5023339;28;20257;-88
2023/03/21 08:46:18;;;;;;;8.52;4.78;;;12.40;51.80;;;;;;5027496;28;20294;-87
2023/03/21 08:48:45;;;;;;;5.15;4.63;;;12.40;57.60;;;;;;5026102;28;20198;-87
2023/03/21 08:51:12;;;;;;;9.48;4.28;;;12.40;54.70;;;;;;5034141;28;20202;-86
2023/03/21 08:53:40;;;;;;;4.80;4.32;;;12.30;54.20;;;;;;5033282;28;20658;-87
2023/03/21 08:56:09;;;;;;;7.15;4.80;;;12.40;52.50;;;;;;5029819;28;20222;-87
2023/03/21 08:58:37;;;;;;;8.70;4.68;;;12.40;53.10;;;;;;5026519;28;20199;-87
2023/03/21 09:01:05;;;;;;;5.70;4.72;;;12.60;49.20;;;;;;5031897;28;20210;-87
2023/03/21 09:03:33;;;;;;;7.82;4.72;;;12.80;49.30;;;;;;5026661;28;20210;-88
2023/03/21 09:06:01;;;;;;;8.43;4.60;;;13.00;49.40;;;;;;5027551;28;20217;-87
2023/03/21 09:08:28;;;;;;;7.78;4.43;;;13.00;46.90;;;;;;5031692;28;20536;-86
2023/03/21 09:10:56;;;;;;;8.88;4.68;;;13.10;47.00;;;;;;5027816;28;20199;-86
2023/03/21 09:13:25;;;;;;;6.10;4.40;;;13.00;49.50;;;;;;5020572;28;20195;-86
2023/03/21 09:15:52;;;;;;;4.93;4.00;;;13.10;47.00;;;;;;5032217;28;20222;-87
2023/03/21 09:18:21;;;;;;;8.38;4.03;;;13.10;46.20;;;;;;5035162;28;20233;-87
2023/03/21 09:20:49;;;;;;;5.25;3.80;;;13.10;45.10;;;;;;5034093;28;20256;-86
2023/03/21 09:23:17;;;;;;;6.28;3.75;;;13.20;44.50;;;;;;5033721;28;20226;-88
2023/03/21 09:25:45;;;;;;;5.38;3.88;;;13.20;44.40;;;;;;5011048;28;20202;-88
2023/03/21 09:28:12;;;;;;;8.50;3.90;;;13.20;41.30;;;;;;5010686;28;20648;-88
2023/03/21 09:30:41;;;;;;;8.02;3.50;;;13.10;41.50;;;;;;5005386;28;20195;-87
2023/03/21 09:33:11;;;;;;;4.80;3.58;;;13.20;42.80;;;;;;5014100;28;20715;-87
2023/03/21 09:35:39;;;;;;;3.85;3.35;;;13.20;44.30;;;;;;5011790;28;20235;-87
2023/03/21 09:38:06;;;;;;;4.68;3.15;;;13.30;40.50;;;;;;5009916;28;20231;-87
2023/03/21 09:40:52;;;;;;;8.48;3.40;;;13.40;39.30;;;;;;5004686;28;20242;-87
2023/03/21 09:43:32;;;;;;;6.53;3.83;;;13.70;38.30;;;;;;5007374;28;20231;-88
2023/03/21 09:46:07;;;;;;;8.30;3.40;;;13.70;38.50;;;;;;5008723;28;20304;-88
2023/03/21 09:48:40;;;;;;;5.05;3.20;;;13.70;40.20;;;;;;5011035;28;20194;-88
2023/03/21 09:51:14;;;;;;;5.95;3.30;;;13.70;38.00;;;;;;5009281;28;20210;-88
2023/03/21 09:53:42;;;;;;;6.03;3.70;;;13.90;36.70;;;;;;5010954;28;20199;-88
2023/03/21 09:56:12;;;;;;;9.63;3.55;;;13.90;38.80;;;;;;5021556;28;20235;-87
2023/03/21 09:58:43;;;;;;;4.45;3.33;;;13.90;37.40;;;;;;5011924;28;20195;-86
2023/03/21 10:01:20;;;;;;;4.93;3.42;;;14.10;36.70;;;;;;5013454;28;20686;-85
2023/03/21 10:03:49;;;;;;;5.38;3.30;;;14.20;37.80;;;;;;5013392;28;20198;-86
2023/03/21 10:06:16;;;;;;;4.47;2.92;;;14.40;34.10;;;;;;5013815;28;20207;-87
2023/03/21 10:08:47;;;;;;;5.20;3.50;;;14.20;33.80;;;;;;5014259;28;20285;-89
2023/03/21 10:11:18;;;;;;;9.68;3.00;;;14.00;37.70;;;;;;5018332;28;20207;-86
2023/03/21 10:13:53;;;;;;;5.20;3.13;;;13.80;38.00;;;;;;5012634;28;20286;-87
2023/03/21 10:16:26;;;;;;;5.18;3.10;;;14.00;40.00;;;;;;5018036;28;20581;-87
2023/03/21 10:18:55;;;;;;;5.10;2.90;;;14.10;38.30;;;;;;5014184;28;20659;-87
2023/03/21 10:21:25;;;;;;;6.07;2.95;;;14.20;37.50;;;;;;5012144;28;20632;-86
2023/03/21 10:23:54;;;;;;;8.00;2.90;;;14.20;37.60;;;;;;5013177;28;20230;-86
2023/03/21 10:26:25;;;;;;;4.00;2.97;;;14.20;39.30;;;;;;5011987;28;20199;-85
2023/03/21 10:28:54;;;;;;;4.88;2.78;;;14.30;34.10;;;;;;5017054;28;20618;-88
2023/03/21 10:31:26;;;;;;;3.83;2.88;;;14.30;33.80;;;;;;5011367;28;20215;-87
2023/03/21 10:33:56;;;;;;;9.40;2.90;;;14.30;36.70;;;;;;5010106;28;20204;-87
2023/03/21 10:36:26;;;;;;;3.47;2.95;;;14.60;33.90;;;;;;5010689;28;20228;-87
2023/03/21 10:38:55;;;;;;;4.32;2.90;;;14.80;33.10;;;;;;5012064;28;20205;-86
2023/03/21 10:41:22;;;;;;;3.15;2.67;;;14.80;32.30;;;;;;5011596;28;20206;-87
2023/03/21 10:44:06;;;;;;;2.80;2.60;;;15.00;34.20;;;;;;5016686;28;20212;-86
2023/03/21 10:46:35;;;;;;;4.70;3.13;;;15.10;33.50;;;;;;5010768;28;20210;-88
2023/03/21 10:49:02;;;;;;;3.72;2.60;;;15.20;31.10;;;;;;5012773;28;20202;-88
2023/03/21 10:51:33;;;;;;;3.08;2.72;;;15.40;29.70;;;;;;5012337;28;20721;-88
2023/03/21 10:54:05;;;;;;;2.40;2.20;;;15.60;29.80;;;;;;5012829;28;20198;-87
2023/03/21 10:56:37;;;;;;;3.53;2.75;;;15.70;27.70;;;;;;4989102;28;20214;-88
2023/03/21 10:59:07;;;;;;;3.42;2.65;;;15.70;28.40;;;;;;5004005;28;20203;-87
2023/03/21 11:01:39;;;;;;;3.50;3.10;;;15.50;28.30;;;;;;5011775;28;20199;-89
2023/03/21 11:04:12;;;;;;;3.28;2.97;;;15.40;28.20;;;;;;5011209;28;20652;-89
2023/03/21 11:06:41;;;;;;;3.20;2.80;;;15.50;28.30;;;;;;5014823;28;20195;-87
2023/03/21 11:09:14;;;;;;;4.60;3.03;;;15.80;28.50;;;;;;5017206;28;20198;-89
2023/03/21 11:11:49;;;;;;;4.65;3.13;;;15.60;28.40;;;;;;5026564;28;20201;-88
2023/03/21 11:14:33;;;;;;;3.92;3.10;;;15.50;28.30;;;;;;5012156;28;20289;-89
2023/03/21 11:17:01;;;;;;;3.53;3.00;;;15.60;28.30;;;;;;5017064;28;20217;-90
2023/03/21 11:19:31;;;;;;;4.57;3.03;;;15.70;28.40;;;;;;5015480;28;20195;-88
2023/03/21 11:21:59;;;;;;;3.63;3.15;;;15.70;28.40;;;;;;5020639;28;20261;-88
2023/03/21 11:24:30;;;;;;;4.43;3.10;;;15.70;26.40;;;;;;4999509;28;20203;-87
2023/03/21 11:26:57;;;;;;;4.55;2.80;;;15.70;26.30;;;;;;5016179;28;20652;-88
2023/03/21 11:29:33;;;;;;;3.22;2.70;;;15.70;27.70;;;;;;5013740;28;20199;-88
2023/03/21 11:32:11;;;;;;;6.47;2.83;;;15.80;28.50;;;;;;5016082;28;20237;-85
2023/03/21 11:37:33;;;;;;;3.53;2.55;;;15.90;28.60;;;;;;4933819;29;20225;-89
2023/03/21 11:49:26;;;;;;;2.40;2.20;;;16.20;25.00;;;;;;5078517;28;20168;-89
2023/03/21 11:52:12;;;;;;;3.70;2.70;;;16.20;27.80;;;;;;5464419;22;20196;-93
2023/03/21 12:01:09;;;;;;;2.88;2.30;;;16.30;25.20;;;;;;5285275;22;20232;-88
2023/03/21 12:17:24;;;;;;;2.38;1.92;;;15.70;26.40;;;;;;5077097;28;20209;-90
2023/03/21 12:39:28;;;;;;;3.00;1.90;;;15.80;23.30;;;;;;5054371;28;20741;-90
2023/03/21 12:42:11;;;;;;;2.75;1.85;;;16.00;24.60;;;;;;5075618;28;20220;-90
2023/03/21 12:44:43;;;;;;;1.83;1.73;;;16.10;22.10;;;;;;5067605;28;20204;-90
2023/03/21 12:47:13;;;;;;;2.30;1.90;;;16.00;24.80;;;;;;5063314;28;20205;-91
2023/03/21 12:49:46;;;;;;;1.90;1.70;;;16.10;23.70;;;;;;5074194;28;20204;-91
2023/03/21 12:55:05;;;;;;;2.80;1.95;;;16.60;23.80;;;;;;5069038;28;20189;-91
2023/03/21 12:57:39;;;;;;;3.10;2.00;;;16.70;23.00;;;;;;5064230;28;20256;-93
2023/03/21 13:00:33;;;;;;;2.28;1.90;;;16.70;22.20;;;;;;5064934;28;20207;-91
2023/03/21 13:03:25;;;;;;;2.15;1.90;;;16.80;21.20;;;;;;5073491;28;20208;-91
2023/03/21 13:05:57;;;;;;;4.05;2.17;;;17.00;20.30;;;;;;5075779;28;20208;-92
2023/03/21 13:11:22;;;;;;;2.40;1.95;;;17.00;19.70;;;;;;5062791;28;20240;-91
2023/03/21 13:13:53;;;;;;;2.53;1.90;;;16.70;20.00;;;;;;5079736;28;20209;-92
2023/03/21 13:56:45;;;;;;;4.35;1.85;;;17.10;18.40;;;;;;5088117;28;20220;-89
2023/03/21 14:04:47;;;;;;;2.10;1.90;;;16.80;19.10;;;;;;5074788;28;20195;-89
2023/03/21 14:10:02;;;;;;;3.42;2.00;;;16.70;20.00;;;;;;5051815;28;20324;-90
2023/03/21 14:12:40;;;;;;;2.08;1.88;;;16.90;20.30;;;;;;5056251;28;20200;-89
2023/03/21 14:17:55;;;;;;;2.42;2.08;;;17.10;17.60;;;;;;5038499;28;20222;-89
2023/03/21 14:20:23;;;;;;;3.47;2.05;;;17.10;17.70;;;;;;5046025;28;20206;-90
2023/03/21 14:22:50;;;;;;;3.58;2.20;;;17.10;19.30;;;;;;5075116;28;20218;-89
2023/03/21 14:25:20;;;;;;;3.67;2.13;;;17.10;18.70;;;;;;5081241;28;20201;-90
2023/03/21 14:27:51;;;;;;;2.50;2.30;;;17.00;20.20;;;;;;5042153;28;20209;-90
2023/03/21 14:30:40;;;;;;;2.75;2.55;;;17.00;18.90;;;;;;5055439;28;20220;-90
2023/03/21 14:33:16;;;;;;;4.07;2.60;;;17.00;19.10;;;;;;5062074;28;20257;-90
2023/03/21 14:38:33;;;;;;;2.70;2.28;;;16.80;18.80;;;;;;5068526;28;20209;-90
2023/03/21 14:43:43;;;;;;;2.22;1.98;;;16.80;18.90;;;;;;5028109;28;20212;-89
2023/03/21 14:48:55;;;;;;;3.47;1.92;;;16.60;18.70;;;;;;5032789;28;20191;-91
2023/03/21 14:51:23;;;;;;;2.92;1.83;;;16.40;19.30;;;;;;5053964;28;20345;-90
2023/03/21 14:57:29;;;;;;;3.10;2.03;;;16.50;18.00;;;;;;5044437;28;20234;-94
2023/03/21 15:00:22;;;;;;;3.33;2.00;;;16.40;18.80;;;;;;5027780;28;20203;-90
2023/03/21 15:02:49;;;;;;;3.30;2.20;;;16.30;19.50;;;;;;5043048;28;20205;-89
2023/03/21 15:05:20;;;;;;;2.70;1.90;;;16.40;19.80;;;;;;5052870;28;20201;-91
2023/03/21 15:11:43;;;;;;;2.50;2.10;;;16.00;19.40;;;;;;5055877;28;20296;-94
2023/03/21 15:14:47;;;;;;;2.90;2.05;;;15.80;20.40;;;;;;5043107;28;20541;-93
2023/03/21 15:24:07;;;;;;;2.90;1.80;;;15.50;21.70;;;;;;5041975;28;20229;-94
2023/03/21 15:27:27;;;;;;;3.78;1.95;;;15.40;20.30;;;;;;5056897;28;20209;-95
2023/03/21 15:32:37;;;;;;;4.53;2.30;;;15.50;22.20;;;;;;5032211;28;20198;-95
2023/03/21 15:52:13;;;;;;;5.43;2.40;;;15.30;23.80;;;;;;5018824;28;20198;-94
2023/03/21 16:09:09;;;;;;;4.53;2.67;;;15.10;25.60;;;;;;5058880;28;20197;-95
2023/03/21 16:14:41;;;;;;;3.85;2.80;;;15.00;25.80;;;;;;5074195;28;20731;-93
2023/03/21 16:22:57;;;;;;;3.67;2.63;;;14.90;27.60;;;;;;5060640;28;20229;-94
2023/03/21 16:28:23;;;;;;;5.25;2.95;;;14.90;27.60;;;;;;5066948;28;20210;-91
2023/03/21 16:30:50;;;;;;;5.15;3.00;;;14.90;27.70;;;;;;5071030;28;20223;-91
2023/03/21 16:33:17;;;;;;;3.25;2.90;;;14.90;27.70;;;;;;5049074;28;20572;-91
2023/03/21 16:35:44;;;;;;;6.30;3.33;;;14.80;27.70;;;;;;5050906;28;20198;-93
2023/03/21 16:38:12;;;;;;;4.93;3.40;;;14.80;27.70;;;;;;5069823;28;20221;-89
2023/03/21 16:40:41;;;;;;;3.97;2.72;;;14.70;27.60;;;;;;5050717;28;20233;-90
2023/03/21 16:45:51;;;;;;;4.20;3.22;;;14.60;27.50;;;;;;5051435;28;20285;-90
2023/03/21 16:50:58;;;;;;;4.60;3.47;;;14.50;27.40;;;;;;5055618;28;20538;-91
2023/03/21 16:53:26;;;;;;;5.70;2.97;;;14.60;28.00;;;;;;5067686;28;20202;-91
2023/03/21 16:55:54;;;;;;;4.57;2.88;;;14.50;27.60;;;;;;5059944;28;20204;-89
2023/03/21 16:58:20;;;;;;;4.30;2.95;;;14.50;29.40;;;;;;5062819;28;20221;-88
2023/03/21 17:00:47;;;;;;;3.15;2.78;;;14.40;29.60;;;;;;5070752;28;20558;-88